map of AQP home
AQP - Airport
Location
City:  Arequipa, Arequipa, Perú
Name:Alfredo Rodríguez Ballón International Airport
ICAO:SPQU
IATA:AQP

Details
Type:Airport (Aerodrome, Airfield)
Use:Public/Civil, International (customs port of entry)
Latitude:16°20'26"S (-16.340610)
Longitude:71°34'15"W (-71.570791)
Elevation:8405 ft (2562 m)
Variation:5.23°W (WMM2015 magnetic declination)
-0.19° annual change
Runways:1
Longest:9777 × 148 ft (2980 × 45 m), paved

Time
Time Zone:UTC-5
Local Time:

Weather
METAR:SPQU 161700Z 26011KT 210V300 CAVOK 20/M05 Q1025 NOSIG RMK PP000
TAF:SPQU 161100Z 1612/1712 02003KT CAVOK TX21/1618Z TN09/1710Z
BECMG 1614/1616 25012KT
BECMG 1623/1701 35003KT

Related Locations
Nearby:
Farthest:DAD: 12434 mi / 20010 km
Da Nang [Intl], VN

Find:

   beyond  
but within

Other Information
Maps:
NOTAMs:
Links:
Sources:

  
  • flag of Perú
  • flag of Arequipa
  

Sectional Chart

Flight Planning
at skyvector.com

Satellite Image

Google Maps Satellite view

 

Copyright © 2004-2018 Karl L. Swartz. All rights reserved.
The Great Circle Mapper name and logo are trademarks of the Great Circle Mapper.
All other trademarks mentioned herein belong to their respective owners.
Please see credits for attibutions and further copyright information.

  Follow gcmap on Facebook Follow gcmap on Twitter Follow gcmap on Google+ GCmap on LinkedIn

hCard Microformat

Geo Microformat